Flight Track Log - Related Links

Times and Time Zones

All times are in EDT time to prevent confusion due to time zone crossing. See the UAL4543 flight status page for this flight to view local times or setup timezone preferences in your user account.

Time Position Orientation Groundspeed Altitude Reporting Facility
EDT Latitude Longitude Course Direction KTS MPH feet Rate Location/Type
Sun 07:51:16 PM 40.7167 -74.1333 287° West 171 197 1,800  Level New York TRACON
Sun 07:52:16 PM 40.7667 -74.1000 27° Northeast 239 275 3,600 2,400 Climbing New York TRACON
Sun 07:53:00 PM 40.7696 -74.5163 284° West  Level FlightAware Approximate
Sun 07:53:16 PM 40.7833 -74.1833 285° West 226 260 6,600  Level New York TRACON
Sun 07:54:00 PM 40.7918 -74.6383 284° West  Level FlightAware Approximate
Sun 07:54:10 PM 40.8000 -74.2500 288° West 224 258 9,300  Level New York TRACON
Sun 07:55:00 PM 40.8175 -74.7590 287° West  Level FlightAware Approximate
Sun 07:55:10 PM 40.8000 -74.3333 270° West 242 278 11,100  Level New York TRACON
Sun 07:56:00 PM 40.8452 -74.8791 287° West  Level FlightAware Approximate
Sun 07:56:16 PM 40.8167 -74.4500 281° West 287 330 12,400  Level New York TRACON
Sun 07:58:11 PM 40.8500 -74.6472 283° West 310 357 15,300 1,568 Climbing New York Center
Sun 07:59:12 PM 40.8669 -74.7689 280° West 315 362 17,000 843 Climbing New York Center
Sun 08:00:12 PM 40.8836 -74.8908 280° West 331 381 17,000 559 Level New York Center
Sun 08:01:10 PM 40.8961 -75.0042 278° West 338 389 18,100 1,271 Climbing New York Center
Sun 08:02:10 PM 40.9128 -75.1178 281° West 338 389 19,500 1,190 Climbing New York Center
Sun 08:03:11 PM 40.8997 -75.2431 262° West 333 383 20,500 984 Climbing New York Center
Sun 08:04:12 PM 40.8742 -75.3678 255° West 339 390 21,500 1,041 Climbing New York Center
Sun 08:05:12 PM 40.8442 -75.4944 253° West 358 412 22,600 1,050 Climbing New York Center
Sun 08:06:12 PM 40.8142 -75.6214 253° West 365 420 23,600 1,017 Climbing New York Center
Sun 08:07:10 PM 40.7836 -75.7536 253° West 370 426 24,600 1,017 Climbing New York Center
Sun 08:08:10 PM 40.7511 -75.8828 252° West 376 433 25,600 1,091 Climbing New York Center
Sun 08:09:11 PM 40.7203 -76.0119 253° West 376 433 26,800 1,190 Climbing New York Center
Sun 08:10:11 PM 40.6869 -76.1517 253° West 376 433 28,000 1,190 Climbing New York Center
Sun 08:11:12 PM 40.6667 -76.2758 258° West 371 427 29,200 1,008 Climbing New York Center
Sun 08:12:10 PM 40.6858 -76.4006 281° West 351 404 30,000 407 Climbing New York Center
Sun 08:13:10 PM 40.7047 -76.5253 281° West 351 404 30,000  Level New York Center
Sun 08:14:10 PM 40.7253 -76.6586 282° West 359 413 30,000  Level New York Center
Sun 08:15:11 PM 40.7478 -76.7947 282° West 370 426 30,000 347 Level New York Center
Sun 08:16:11 PM 40.7656 -76.9306 280° West 375 432 30,700 900 Climbing New York Center
Sun 08:17:11 PM 40.7858 -77.0614 282° West 370 426 31,800 1,100 Climbing New York Center
Sun 08:19:11 PM 40.8208 -77.3122 281° West 352 405 34,000 1,100 Climbing Cleveland Center
Sun 08:20:11 PM 40.8386 -77.4294 281° West 339 390 35,100 1,000 Climbing Cleveland Center
Sun 08:21:11 PM 40.8542 -77.5414 280° West 328 377 36,000 450 Climbing Cleveland Center
Sun 08:22:11 PM 40.8697 -77.6586 280° West 328 377 36,000  Level Cleveland Center
Sun 08:23:11 PM 40.8856 -77.7817 280° West 333 383 36,000  Level Cleveland Center
Sun 08:24:11 PM 40.9031 -77.9017 281° West 338 389 36,000  Level Cleveland Center
Sun 08:25:11 PM 40.9183 -78.0219 280° West 338 389 36,000  Level Cleveland Center
Sun 08:26:11 PM 40.9356 -78.1450 281° West 338 389 36,000  Level Cleveland Center
Sun 08:27:11 PM 40.9503 -78.2544 280° West 344 396 36,000  Level Cleveland Center
Sun 08:28:11 PM 40.9675 -78.3803 280° West 350 403 36,000  Level Cleveland Center
Sun 08:29:11 PM 40.9800 -78.5011 278° West 350 403 36,000  Level Cleveland Center
Sun 08:30:11 PM 40.9947 -78.6244 279° West 350 403 36,000  Level Cleveland Center
Sun 08:31:11 PM 41.0092 -78.7450 279° West 350 403 36,000  Level Cleveland Center
Sun 08:32:11 PM 41.0239 -78.8739 279° West 350 403 36,000  Level Cleveland Center
Sun 08:33:11 PM 41.0381 -78.9947 279° West 350 403 36,000  Level Cleveland Center
Sun 08:34:11 PM 41.0542 -79.1211 280° West 350 403 36,000  Level Cleveland Center
Sun 08:35:11 PM 41.0664 -79.2475 277° West 350 403 36,000  Level Cleveland Center
Sun 08:36:11 PM 41.0822 -79.3767 279° West 350 403 36,000  Level Cleveland Center
Sun 08:37:11 PM 41.0961 -79.5058 278° West 350 403 36,000  Level Cleveland Center
Sun 08:38:11 PM 41.1097 -79.6297 278° West 350 403 36,000  Level Cleveland Center
Sun 08:39:11 PM 41.1231 -79.7561 278° West 350 403 36,000  Level Cleveland Center
Sun 08:40:11 PM 41.1367 -79.9022 277° West 355 409 36,000  Level Cleveland Center
Sun 08:41:11 PM 41.1539 -80.0289 280° West 355 409 36,000  Level Cleveland Center
Sun 08:42:11 PM 41.1669 -80.1583 278° West 355 409 36,000  Level Cleveland Center
Sun 08:43:11 PM 41.1819 -80.2881 279° West 355 409 36,000  Level Cleveland Center
Sun 08:44:11 PM 41.1906 -80.4203 275° West 355 409 36,000  Level Cleveland Center
Sun 08:45:11 PM 41.2053 -80.5500 279° West 355 409 36,000  Level Cleveland Center
Sun 08:46:11 PM 41.2178 -80.6742 278° West 348 400 36,000  Level Cleveland Center
Sun 08:47:11 PM 41.2303 -80.8011 278° West 348 400 36,000  Level Cleveland Center
Sun 08:48:11 PM 41.2425 -80.9283 277° West 353 406 36,000  Level Cleveland Center
Sun 08:49:11 PM 41.2525 -81.0417 277° West 353 406 36,000  Level Cleveland Center
Sun 08:50:11 PM 41.2664 -81.1633 279° West 346 398 36,000  Level Cleveland Center
Sun 08:51:11 PM 41.2783 -81.2878 277° West 346 398 36,000  Level Cleveland Center
Sun 08:52:11 PM 41.2919 -81.4150 278° West 326 375 36,000  Level Cleveland Center
Sun 08:53:11 PM 41.3014 -81.5283 276° West 316 364 36,000  Level Cleveland Center
Sun 08:54:11 PM 41.3108 -81.6447 276° West 316 364 36,000  Level Cleveland Center
Sun 08:55:11 PM 41.3244 -81.7556 279° West 311 358 36,000  Level Cleveland Center
Sun 08:56:11 PM 41.3317 -81.8606 275° West 311 358 36,000  Level Cleveland Center
Sun 08:57:11 PM 41.3428 -81.9689 278° West 306 352 36,000  Level Cleveland Center
Sun 08:58:11 PM 41.3519 -82.0767 276° West 306 352 36,000  Level Cleveland Center
Sun 08:59:11 PM 41.3589 -82.1767 275° West 306 352 36,000  Level Cleveland Center
Sun 09:00:11 PM 41.3656 -82.2931 274° West 306 352 36,000  Level Cleveland Center
Sun 09:01:11 PM 41.3719 -82.4122 274° West 320 368 36,000  Level Cleveland Center
Sun 09:02:11 PM 41.3803 -82.5453 275° West 348 400 36,000  Level Cleveland Center
Sun 09:03:11 PM 41.3881 -82.6894 274° West 354 407 36,000  Level Cleveland Center
Sun 09:04:11 PM 41.3939 -82.8253 273° West 365 420 36,000  Level Cleveland Center
Sun 09:05:11 PM 41.4014 -82.9639 274° West 370 426 36,000  Level Cleveland Center
Sun 09:06:11 PM 41.4111 -83.1028 275° West 375 432 36,000  Level Cleveland Center
Sun 09:07:11 PM 41.4164 -83.2303 273° West 380 437 36,000  Level Cleveland Center
Sun 09:08:11 PM 41.4236 -83.3689 274° West 380 437 36,000  Level Cleveland Center
Sun 09:09:11 PM 41.4306 -83.5133 274° West 386 444 36,000  Level Cleveland Center
Sun 09:10:11 PM 41.4372 -83.6578 274° West 391 450 36,000  Level Cleveland Center
Sun 09:11:11 PM 41.4433 -83.8133 273° West 391 450 36,000  Level Cleveland Center
Sun 09:12:43 PM 41.4558 -84.0286 275° West 396 456 36,000  Level Chicago Center
Sun 09:13:45 PM 41.4625 -84.1761 274° West 400 460 36,000  Level Chicago Center
Sun 09:14:46 PM 41.4694 -84.3253 274° West 403 464 36,000  Level Chicago Center
Sun 09:15:48 PM 41.4753 -84.4753 273° West 407 468 36,000  Level Chicago Center
Sun 09:16:50 PM 41.4806 -84.6261 273° West 408 470 36,000  Level Chicago Center
Sun 09:17:52 PM 41.4869 -84.8072 273° West 408 470 36,000  Level Chicago Center
Sun 09:18:54 PM 41.4928 -84.9578 273° West 408 470 36,000  Level Chicago Center
Sun 09:19:56 PM 41.4975 -85.1097 272° West 409 471 36,000  Level Chicago Center
Sun 09:20:58 PM 41.5019 -85.2622 272° West 409 471 36,000  Level Chicago Center
Sun 09:21:59 PM 41.5075 -85.4181 273° West 411 473 36,000  Level Chicago Center
Sun 09:23:01 PM 41.5117 -85.5733 272° West 410 472 36,000  Level Chicago Center
Sun 09:24:03 PM 41.5164 -85.7236 272° West 403 464 36,000  Level Chicago Center
Sun 09:25:05 PM 41.5208 -85.8722 272° West 401 461 36,000  Level Chicago Center
Sun 09:26:07 PM 41.5244 -86.0222 272° West 403 464 36,000  Level Chicago Center
Sun 09:27:09 PM 41.5272 -86.1983 271° West 397 457 36,000  Level Chicago Center
Sun 09:28:10 PM 41.5308 -86.3442 272° West 394 453 36,000  Level Chicago Center
Sun 09:29:12 PM 41.5325 -86.4889 271° West 391 450 36,000  Level Chicago Center
Sun 09:30:14 PM 41.5342 -86.6322 271° West 389 448 36,000  Level Chicago Center
Sun 09:31:16 PM 41.5372 -86.7975 271° West 390 449 36,000  Level Chicago Center
Sun 09:32:18 PM 41.5389 -86.9419 271° West 391 450 36,000  Level Chicago Center
Sun 09:33:20 PM 41.5411 -87.0867 271° West 392 451 36,000  Level Chicago Center
Sun 09:34:21 PM 41.5422 -87.2319 271° West 394 453 36,000  Level Chicago Center
Sun 09:35:23 PM 41.5425 -87.3783 270° West 396 456 36,000  Level Chicago Center
Sun 09:36:25 PM 41.5436 -87.5244 271° West 396 456 36,000  Level Chicago Center
Sun 09:37:27 PM 41.5447 -87.7003 271° West 398 458 36,000  Level Chicago Center
Sun 09:38:28 PM 41.5453 -87.8481 270° West 402 463 36,000  Level Chicago Center
Sun 09:39:30 PM 41.5461 -87.9931 270° West 401 461 36,000  Level Chicago Center
Sun 09:40:32 PM 41.5464 -88.1389 270° West 405 466 36,000  Level Chicago Center
Sun 09:41:33 PM 41.5461 -88.3175 270° West 409 471 36,000  Level Chicago Center
Sun 09:42:35 PM 41.5472 -88.4678 271° West 410 472 36,000  Level Chicago Center
Sun 09:43:37 PM 41.5469 -88.6167 270° West 407 468 36,000  Level Chicago Center
Sun 09:44:39 PM 41.5481 -88.7656 271° West 404 465 36,000  Level Chicago Center
Sun 09:45:40 PM 41.5478 -88.9119 270° West 398 458 36,000  Level Chicago Center
Sun 09:46:42 PM 41.5478 -89.0844 270° West 392 451 36,000  Level Chicago Center
Sun 09:47:44 PM 41.5475 -89.2256 270° West 386 444 36,000  Level Chicago Center
Sun 09:48:45 PM 41.5506 -89.3653 272° West 380 437 36,000  Level Chicago Center
Sun 09:49:48 PM 41.5533 -89.5069 272° West 382 440 36,000  Level Chicago Center
Sun 09:50:48 PM 41.5558 -89.6633 271° West 389 448 36,000  Level Chicago Center
Sun 09:51:50 PM 41.5581 -89.8111 271° West 397 457 36,000  Level Chicago Center
Sun 09:52:52 PM 41.5597 -89.9622 271° West 405 466 36,000  Level Chicago Center
Sun 09:53:53 PM 41.5606 -90.1153 270° West 412 474 36,000  Level Chicago Center
Sun 09:54:55 PM 41.5611 -90.2711 270° West 421 484 36,000  Level Chicago Center
Sun 09:55:56 PM 41.5631 -90.4286 271° West 426 490 36,000  Level Chicago Center
Sun 09:56:58 PM 41.5628 -90.5817 270° West 418 481 36,000  Level Chicago Center
Sun 09:57:59 PM 41.5633 -90.7597 270° West 406 467 36,000  Level Chicago Center
Sun 09:59:00 PM 41.5639 -90.9061 270° West 399 459 36,000  Level Chicago Center
Sun 10:00:02 PM 41.5644 -91.0494 270° West 390 449 36,000 -390 Level Chicago Center
Sun 10:01:03 PM 41.5636 -91.1933 270° West 390 449 35,200 -1,082 Descending Chicago Center
Sun 10:02:04 PM 41.5639 -91.3403 270° West 396 456 33,800 -1,512 Descending Chicago Center
Sun 10:03:06 PM 41.5625 -91.4886 269° West 400 460 32,100 -1,756 Descending Chicago Center
Sun 10:04:07 PM 41.5625 -91.6389 270° West 406 467 30,200 -2,115 Descending Chicago Center
Sun 10:05:08 PM 41.5617 -91.8178 270° West 404 465 27,800 -2,146 Descending Chicago Center
Sun 10:06:10 PM 41.5600 -91.9675 269° West 405 466 25,800 -2,049 Descending Chicago Center
Sun 10:07:11 PM 41.5592 -92.1169 270° West 404 465 23,600 -2,262 Descending Chicago Center
Sun 10:08:12 PM 41.5575 -92.2578 269° West 387 445 21,200 -2,439 Descending Chicago Center
Sun 10:09:14 PM 41.5556 -92.3931 269° West 371 427 18,600 -2,634 Descending Chicago Center
Sun 10:10:15 PM 41.5544 -92.5228 269° West 356 410 15,800 -2,508 Descending Chicago Center
Sun 10:11:16 PM 41.5533 -92.6506 269° West 348 400 13,500 -1,869 Descending Chicago Center
Sun 10:12:17 PM 41.5508 -92.7769 269° West 323 372 12,000 -1,220 Descending Chicago Center
Sun 10:13:19 PM 41.5469 -92.8858 267° West 305 351 11,000 -1,317 Descending Chicago Center
Sun 10:14:20 PM 41.5383 -92.9783 263° West 270 311 9,300 -1,878 Descending Chicago Center
Sun 10:15:30 PM 41.5286 -93.0933 264° West 242 278 6,900 -1,887 Descending Minneapolis Center
Sun 10:16:24 PM 41.5281 -93.1589 269° West 222 255 5,400 -1,617 Descending Minneapolis Center
Sun 10:17:25 PM 41.5203 -93.2403 263° West 219 252 3,800 -1,190 Descending Minneapolis Center
Sun 10:18:25 PM 41.5119 -93.3164 262° West 213 245 3,000 -397 Descending Minneapolis Center
Sun 10:19:26 PM 41.5056 -93.3892 263° West 191 220 3,000  Level Minneapolis Center
Sun 10:20:27 PM 41.4989 -93.4594 263° West 187 215 3,000 -261 Level Minneapolis Center
Sun 10:21:21 PM 41.4939 -93.5208 264° West 185 213 2,500 -435 Descending Minneapolis Center
Sun 10:21:36 PM 41.4869 -93.5450 249° West 182 209 2,500 -295 Level Minneapolis Center
Sun 10:22:22 PM 41.4950 -93.5792 287° West 159 183 2,200 -492 Descending Minneapolis Center
Sun 10:22:37 PM 41.4931 -93.5981 262° West 148 170 2,000 -800 Descending Minneapolis Center

Login

Don't have an account? Register now (free) for customized features, flight alerts, and more!